createdAt,value
2018-06-17T00:01:35.548Z,56.80
2018-06-17T00:04:04.230Z,56.30
2018-06-17T00:06:32.890Z,56.80
2018-06-17T00:09:01.498Z,56.40
2018-06-17T00:11:30.114Z,57.00
2018-06-17T00:13:58.746Z,56.40
2018-06-17T00:16:27.360Z,56.30
2018-06-17T00:18:55.975Z,56.10
2018-06-17T00:21:24.618Z,55.30
2018-06-17T00:23:53.205Z,55.70
2018-06-17T00:26:21.826Z,55.30
2018-06-17T00:28:50.492Z,55.50
2018-06-17T00:31:19.112Z,55.10
2018-06-17T00:33:47.855Z,55.60
2018-06-17T00:36:16.492Z,57.10
2018-06-17T00:38:45.098Z,58.10
2018-06-17T00:41:13.720Z,58.30
2018-06-17T00:43:42.358Z,58.50
2018-06-17T00:46:10.970Z,58.90
2018-06-17T00:48:39.584Z,59.40
2018-06-17T00:51:08.243Z,59.50
2018-06-17T00:53:36.873Z,59.60
2018-06-17T00:56:05.596Z,59.60
2018-06-17T00:58:34.251Z,59.90
2018-06-17T01:01:03.436Z,60.10
2018-06-17T01:03:32.044Z,60.00
2018-06-17T01:06:00.730Z,59.30
2018-06-17T01:08:29.435Z,59.90
2018-06-17T01:10:58.095Z,60.00
2018-06-17T01:13:26.762Z,58.00
2018-06-17T01:15:55.369Z,56.90
2018-06-17T01:18:24.106Z,57.60
2018-06-17T01:20:52.855Z,57.60
2018-06-17T01:23:21.488Z,57.50
2018-06-17T01:25:50.106Z,57.20
2018-06-17T01:28:18.762Z,56.80
2018-06-17T01:30:47.386Z,56.70
2018-06-17T01:33:16.038Z,56.60
2018-06-17T01:35:44.644Z,56.80
2018-06-17T01:38:13.254Z,56.90
2018-06-17T01:40:41.877Z,57.80
2018-06-17T01:43:10.474Z,58.60
2018-06-17T01:45:39.107Z,59.20
2018-06-17T01:48:07.747Z,59.00
2018-06-17T01:50:36.412Z,61.10
2018-06-17T01:53:05.098Z,60.30
2018-06-17T01:55:33.707Z,60.80
2018-06-17T01:58:02.370Z,61.20
2018-06-17T02:00:31.006Z,61.80
2018-06-17T02:03:03.860Z,61.40
2018-06-17T02:05:37.835Z,62.30
2018-06-17T02:08:11.920Z,62.00
2018-06-17T02:10:45.906Z,63.20
2018-06-17T02:13:14.618Z,64.00
2018-06-17T02:15:43.858Z,64.10
2018-06-17T02:18:18.980Z,64.00
2018-06-17T02:20:47.606Z,64.90
2018-06-17T02:23:16.273Z,65.00
2018-06-17T02:25:44.946Z,65.80
2018-06-17T02:28:13.579Z,65.40
2018-06-17T02:30:42.287Z,65.60
2018-06-17T02:33:10.959Z,65.40
2018-06-17T02:35:39.599Z,65.80
2018-06-17T02:38:08.269Z,65.60
2018-06-17T02:40:36.905Z,65.30
2018-06-17T02:43:05.858Z,63.50
2018-06-17T02:45:39.857Z,62.90
2018-06-17T02:48:13.953Z,63.10
2018-06-17T02:50:47.802Z,63.00
2018-06-17T02:53:21.690Z,61.80
2018-06-17T02:55:50.307Z,61.10
2018-06-17T02:58:18.943Z,61.80
2018-06-17T03:00:47.593Z,61.20
2018-06-17T03:03:16.222Z,61.30
2018-06-17T03:05:44.895Z,62.50
2018-06-17T03:08:13.487Z,63.30
2018-06-17T03:10:42.115Z,62.70
2018-06-17T03:13:10.782Z,62.50
2018-06-17T03:15:39.378Z,61.30
2018-06-17T03:18:08.047Z,61.10
2018-06-17T03:20:36.685Z,62.10
2018-06-17T03:23:05.395Z,62.20
2018-06-17T03:25:39.344Z,62.60
2018-06-17T03:28:13.374Z,62.90
2018-06-17T03:30:47.405Z,63.60
2018-06-17T03:33:21.341Z,62.90
2018-06-17T03:35:55.366Z,62.80
2018-06-17T03:38:23.978Z,63.00
2018-06-17T03:40:52.622Z,62.40
2018-06-17T03:43:21.260Z,61.30
2018-06-17T03:45:49.948Z,60.70
2018-06-17T03:48:18.559Z,61.20
2018-06-17T03:50:47.166Z,61.10
2018-06-17T03:53:15.826Z,59.70
2018-06-17T03:55:44.421Z,58.50
2018-06-17T03:58:13.058Z,58.80
2018-06-17T04:00:41.690Z,59.10
2018-06-17T04:03:10.294Z,58.60
2018-06-17T04:05:38.994Z,58.60
2018-06-17T04:08:07.631Z,59.20
2018-06-17T04:10:36.272Z,59.10
2018-06-17T04:13:04.917Z,58.80
2018-06-17T04:15:33.515Z,59.00
2018-06-17T04:18:02.162Z,59.40
2018-06-17T04:20:30.762Z,60.40
2018-06-17T04:22:59.370Z,59.90
2018-06-17T04:25:28.035Z,56.60
2018-06-17T04:27:56.659Z,54.80
2018-06-17T04:30:25.327Z,54.10
2018-06-17T04:32:53.955Z,55.00
2018-06-17T04:35:22.600Z,54.00
2018-06-17T04:37:51.359Z,54.70
2018-06-17T04:40:19.978Z,54.90
2018-06-17T04:42:48.623Z,54.50
2018-06-17T04:45:17.228Z,54.40
2018-06-17T04:47:45.851Z,53.00
2018-06-17T04:50:14.563Z,53.30
2018-06-17T04:52:43.223Z,52.10
2018-06-17T04:55:11.831Z,52.90
2018-06-17T04:57:40.476Z,54.60
2018-06-17T05:00:09.142Z,54.60
2018-06-17T05:02:37.789Z,54.20
2018-06-17T05:05:06.735Z,54.80
2018-06-17T05:07:35.395Z,54.90
2018-06-17T05:10:04.055Z,53.70
2018-06-17T05:12:32.661Z,53.50
2018-06-17T05:16:25.695Z,51.90
2018-06-17T05:18:54.323Z,50.60
2018-06-17T05:21:22.959Z,51.70
2018-06-17T05:23:51.578Z,51.70
2018-06-17T05:26:20.206Z,51.30
2018-06-17T05:28:48.871Z,51.10
2018-06-17T05:31:17.506Z,50.30
2018-06-17T05:33:46.166Z,50.40
2018-06-17T05:36:14.766Z,50.90
2018-06-17T05:38:43.418Z,51.70
2018-06-17T05:41:12.076Z,52.00
2018-06-17T05:43:40.685Z,44.50
2018-06-17T05:46:09.417Z,49.40
2018-06-17T05:48:38.006Z,51.20
2018-06-17T05:51:06.735Z,48.60
2018-06-17T05:53:35.365Z,48.90
2018-06-17T05:56:03.998Z,48.70
2018-06-17T05:58:32.714Z,46.70
2018-06-17T06:01:01.402Z,48.30
2018-06-17T06:03:30.030Z,47.70
2018-06-17T06:05:58.667Z,48.40
2018-06-17T06:08:27.306Z,48.40
2018-06-17T06:10:56.071Z,49.60
2018-06-17T06:15:53.643Z,50.60
2018-06-17T06:18:22.489Z,47.20
2018-06-17T06:20:51.102Z,43.40
2018-06-17T06:23:20.923Z,36.60
2018-06-17T06:25:49.509Z,34.00
2018-06-17T06:28:18.780Z,27.00
2018-06-17T06:30:47.449Z,17.30
2018-06-17T06:33:16.041Z,20.20
2018-06-17T06:35:44.696Z,17.30
2018-06-17T06:38:13.342Z,12.10
2018-06-17T06:40:42.024Z,10.70
2018-06-17T06:43:10.666Z,10.60
2018-06-17T06:45:39.308Z,11.30
2018-06-17T06:48:07.983Z,10.20
2018-06-17T06:50:37.018Z,13.00
2018-06-17T06:53:05.821Z,12.40
2018-06-17T06:55:34.707Z,12.20
2018-06-17T06:58:03.599Z,10.60
2018-06-17T07:00:32.241Z,10.60
2018-06-17T07:03:12.345Z,9.00
2018-06-17T07:05:52.214Z,7.80
2018-06-17T07:08:32.243Z,8.90
2018-06-17T07:11:00.899Z,8.60
2018-06-17T07:13:29.569Z,8.40
2018-06-17T07:16:09.489Z,9.10
2018-06-17T07:18:40.277Z,8.30
2018-06-17T07:21:09.502Z,8.80
2018-06-17T07:23:38.113Z,8.40
2018-06-17T07:26:57.797Z,7.60
2018-06-17T07:29:39.951Z,6.90
2018-06-17T07:32:08.634Z,4.40
2018-06-17T07:37:05.899Z,2.70
2018-06-17T07:41:43.760Z,3.00
2018-06-17T07:44:12.446Z,1.00
2018-06-17T07:46:41.070Z,1.70
2018-06-17T07:49:31.251Z,1.00
2018-06-17T07:52:13.550Z,1.20
2018-06-17T07:54:42.850Z,1.20
2018-06-17T07:57:12.773Z,1.00
2018-06-17T07:59:41.452Z,1.30
2018-06-17T08:02:10.687Z,1.00
2018-06-17T08:04:39.293Z,1.00
2018-06-17T08:07:08.158Z,1.00
2018-06-17T08:09:37.041Z,1.00
2018-06-17T08:12:06.063Z,1.00
2018-06-17T08:14:34.675Z,1.00
2018-06-17T08:19:42.159Z,1.00
2018-06-17T08:22:22.524Z,1.00
2018-06-17T08:24:51.745Z,1.00
2018-06-17T08:27:21.730Z,1.00
2018-06-17T08:29:51.745Z,1.40
2018-06-17T08:32:20.982Z,1.00
2018-06-17T08:34:50.546Z,1.00
2018-06-17T08:37:19.273Z,1.00
2018-06-17T08:39:47.898Z,1.00
2018-06-17T08:42:16.539Z,1.00
2018-06-17T08:44:45.175Z,1.00
2018-06-17T08:47:13.901Z,1.00
2018-06-17T08:49:42.853Z,1.00
2018-06-17T08:52:11.907Z,1.00
2018-06-17T09:00:21.847Z,1.00
2018-06-17T09:02:50.455Z,1.00
2018-06-17T09:05:19.089Z,1.00
2018-06-17T09:10:16.000Z,1.00
2018-06-17T09:12:45.029Z,1.00
2018-06-17T09:15:13.868Z,1.00
2018-06-17T09:17:45.448Z,1.00
2018-06-17T09:20:14.164Z,1.00
2018-06-17T09:22:42.778Z,1.00
2018-06-17T09:25:11.420Z,1.00
2018-06-17T09:27:40.065Z,1.00
2018-06-17T09:30:08.660Z,1.00
2018-06-17T09:32:37.310Z,1.00
2018-06-17T09:35:06.028Z,1.00
2018-06-17T09:37:35.335Z,1.70
2018-06-17T09:40:04.057Z,1.00
2018-06-17T09:45:01.324Z,1.00
2018-06-17T09:47:29.938Z,1.00
2018-06-17T09:49:59.072Z,1.00
2018-06-17T09:52:27.768Z,1.00
2018-06-17T09:54:56.629Z,1.00
2018-06-17T09:57:25.265Z,1.00
2018-06-17T09:59:53.874Z,1.00
2018-06-17T10:02:22.556Z,1.00
2018-06-17T10:04:51.222Z,1.00
2018-06-17T10:07:19.824Z,1.00
2018-06-17T10:10:19.962Z,1.00
2018-06-17T10:12:48.595Z,1.00
2018-06-17T10:15:17.200Z,1.00
2018-06-17T10:17:46.003Z,1.00
2018-06-17T10:20:14.621Z,1.00
2018-06-17T10:22:43.218Z,1.70
2018-06-17T10:25:11.842Z,2.60
2018-06-17T10:27:40.431Z,3.60
2018-06-17T10:30:09.067Z,3.00
2018-06-17T10:32:37.654Z,2.70
2018-06-17T10:35:06.340Z,4.40
2018-06-17T10:37:34.951Z,4.10
2018-06-17T10:40:03.613Z,5.30
2018-06-17T10:42:32.174Z,5.50
2018-06-17T10:45:00.813Z,6.60
2018-06-17T10:47:29.528Z,6.20
2018-06-17T10:49:58.457Z,5.30
2018-06-17T10:52:27.166Z,3.10
2018-06-17T10:54:55.773Z,4.40
2018-06-17T10:57:24.395Z,3.90
2018-06-17T10:59:52.995Z,4.20
2018-06-17T11:02:21.794Z,3.10
2018-06-17T11:04:50.438Z,1.00
2018-06-17T11:07:19.055Z,1.00
2018-06-17T11:09:47.882Z,1.50
2018-06-17T11:12:16.550Z,2.90
2018-06-17T11:14:45.179Z,1.90
2018-06-17T11:17:13.814Z,1.20
2018-06-17T11:19:42.470Z,2.60
2018-06-17T11:22:11.058Z,3.10
2018-06-17T11:24:39.670Z,3.10
2018-06-17T11:27:08.359Z,4.10
2018-06-17T11:29:36.939Z,4.80
2018-06-17T11:32:05.651Z,3.80
2018-06-17T11:34:34.594Z,3.70
2018-06-17T11:37:03.295Z,4.60
2018-06-17T11:39:31.970Z,3.50
2018-06-17T11:42:00.597Z,3.40
2018-06-17T11:44:29.360Z,3.10
2018-06-17T11:46:58.147Z,3.50
2018-06-17T11:49:27.011Z,3.80
2018-06-17T11:51:55.655Z,3.70
2018-06-17T11:54:24.499Z,6.30
2018-06-17T11:56:53.159Z,6.00
2018-06-17T11:59:21.997Z,6.00
2018-06-17T12:01:50.699Z,5.00
2018-06-17T12:04:19.318Z,5.20
2018-06-17T12:06:47.942Z,5.90
2018-06-17T12:09:16.752Z,6.10
2018-06-17T12:11:45.647Z,6.30
2018-06-17T12:14:14.513Z,5.90
2018-06-17T12:16:43.266Z,5.80
2018-06-17T12:19:11.938Z,6.90
2018-06-17T12:21:40.611Z,5.70
2018-06-17T12:24:09.395Z,4.30
2018-06-17T12:26:38.370Z,5.00
2018-06-17T12:29:07.111Z,5.20
2018-06-17T12:31:35.800Z,5.00
2018-06-17T12:34:04.436Z,5.70
2018-06-17T12:36:33.101Z,6.10
2018-06-17T12:39:01.755Z,6.10
2018-06-17T12:41:30.370Z,5.10
2018-06-17T12:43:58.973Z,6.30
2018-06-17T12:46:27.561Z,5.60
2018-06-17T12:48:56.212Z,6.40
2018-06-17T12:51:25.668Z,6.50
2018-06-17T12:53:54.427Z,5.20
2018-06-17T12:56:23.049Z,6.50
2018-06-17T12:58:51.767Z,6.40
2018-06-17T13:01:20.408Z,4.90
2018-06-17T13:03:49.062Z,5.00
2018-06-17T13:06:17.847Z,6.90
2018-06-17T13:08:47.351Z,7.00
2018-06-17T13:11:16.073Z,6.30
2018-06-17T13:13:44.984Z,7.40
2018-06-17T13:16:13.667Z,7.20
2018-06-17T13:18:42.897Z,6.60
2018-06-17T13:21:11.542Z,6.80
2018-06-17T13:23:40.494Z,7.20
2018-06-17T13:26:09.235Z,8.50
2018-06-17T13:28:39.156Z,9.00
2018-06-17T13:31:07.885Z,8.90
2018-06-17T13:33:36.474Z,9.60
2018-06-17T13:36:05.057Z,9.90
2018-06-17T13:38:33.775Z,9.40
2018-06-17T13:41:02.393Z,9.70
2018-06-17T13:43:31.041Z,11.10
2018-06-17T13:45:59.764Z,12.70
2018-06-17T13:48:28.347Z,13.20
2018-06-17T13:50:57.113Z,13.60
2018-06-17T13:53:25.834Z,15.70
2018-06-17T13:55:54.658Z,16.10
2018-06-17T13:58:23.275Z,15.30
2018-06-17T14:00:52.095Z,15.30
2018-06-17T14:03:21.074Z,15.90
2018-06-17T14:05:49.802Z,14.60
2018-06-17T14:08:18.766Z,15.80
2018-06-17T14:10:47.435Z,15.30
2018-06-17T14:13:22.323Z,14.60
2018-06-17T14:15:51.028Z,15.50
2018-06-17T14:18:19.749Z,15.30
2018-06-17T14:20:48.402Z,14.10
2018-06-17T14:23:17.225Z,15.30
2018-06-17T14:25:45.934Z,16.40
2018-06-17T14:28:14.686Z,17.60
2018-06-17T14:30:43.338Z,17.70
2018-06-17T14:35:40.396Z,17.50
2018-06-17T14:38:09.193Z,17.50
2018-06-17T14:40:43.187Z,18.40
2018-06-17T14:43:17.059Z,19.80
2018-06-17T14:45:51.235Z,21.00
2018-06-17T14:48:25.263Z,21.50
2018-06-17T14:50:59.128Z,20.10
2018-06-17T14:53:27.790Z,20.40
2018-06-17T14:55:56.570Z,20.70
2018-06-17T14:58:25.459Z,20.50
2018-06-17T15:00:54.297Z,22.20
2018-06-17T15:03:22.926Z,22.90
2018-06-17T15:05:51.701Z,23.90
2018-06-17T15:08:20.348Z,24.10
2018-06-17T15:10:49.124Z,24.80
2018-06-17T15:13:17.834Z,24.70
2018-06-17T15:15:46.576Z,25.20
2018-06-17T15:18:15.407Z,26.10
2018-06-17T15:20:47.780Z,26.90
2018-06-17T15:23:16.565Z,27.60
2018-06-17T15:25:45.242Z,28.30
2018-06-17T15:28:13.889Z,29.40
2018-06-17T15:30:42.587Z,29.40
2018-06-17T15:33:16.466Z,28.90
2018-06-17T15:35:50.596Z,29.50
2018-06-17T15:38:24.474Z,28.00
2018-06-17T15:40:58.439Z,28.50
2018-06-17T15:43:27.497Z,27.70
2018-06-17T15:45:56.657Z,27.40
2018-06-17T15:48:25.325Z,27.20
2018-06-17T15:50:54.154Z,26.30
2018-06-17T15:53:22.930Z,26.20
2018-06-17T15:55:51.653Z,25.30
2018-06-17T15:58:20.367Z,25.40
2018-06-17T16:00:49.639Z,25.70
2018-06-17T16:03:18.796Z,27.00
2018-06-17T16:05:47.951Z,26.70
2018-06-17T16:08:16.619Z,25.80
2018-06-17T16:10:46.454Z,26.50
2018-06-17T16:13:20.657Z,25.00
2018-06-17T16:15:54.728Z,24.30
2018-06-17T16:18:28.647Z,25.00
2018-06-17T16:20:59.246Z,25.70
2018-06-17T16:25:57.036Z,26.00
2018-06-17T16:28:25.658Z,26.20
2018-06-17T16:30:54.404Z,26.90
2018-06-17T16:33:23.242Z,27.10
2018-06-17T16:35:52.138Z,28.80
2018-06-17T16:38:20.894Z,29.00
2018-06-17T16:40:49.707Z,30.30
2018-06-17T16:43:18.463Z,31.40
2018-06-17T16:45:47.122Z,34.10
2018-06-17T16:48:15.768Z,38.70
2018-06-17T16:50:49.981Z,41.70
2018-06-17T16:53:24.106Z,43.90
2018-06-17T16:55:58.286Z,45.60
2018-06-17T16:58:32.400Z,46.30
2018-06-17T17:01:01.029Z,46.40
2018-06-17T17:03:29.635Z,46.00
2018-06-17T17:05:58.337Z,47.10
2018-06-17T17:08:26.953Z,47.40
2018-06-17T17:10:55.826Z,46.70
2018-06-17T17:13:24.443Z,44.80
2018-06-17T17:15:53.246Z,45.90
2018-06-17T17:18:21.904Z,46.70
2018-06-17T17:20:50.910Z,48.00
2018-06-17T17:23:19.690Z,47.60
2018-06-17T17:25:48.244Z,49.70
2018-06-17T17:28:16.997Z,50.00
2018-06-17T17:30:50.035Z,50.80
2018-06-17T17:33:24.077Z,51.00
2018-06-17T17:35:58.001Z,50.10
2018-06-17T17:38:30.236Z,49.20
2018-06-17T17:41:01.486Z,48.40
2018-06-17T17:43:30.287Z,49.00
2018-06-17T17:46:04.138Z,49.80
2018-06-17T17:48:36.535Z,50.20
2018-06-17T17:51:05.275Z,50.90
2018-06-17T17:53:34.243Z,50.70
2018-06-17T17:56:03.002Z,52.20
2018-06-17T17:58:31.664Z,55.90
2018-06-17T18:01:00.349Z,56.00
2018-06-17T18:03:29.041Z,57.00
2018-06-17T18:05:57.849Z,56.80
2018-06-17T18:08:26.541Z,52.90
2018-06-17T18:10:55.198Z,54.20
2018-06-17T18:13:26.190Z,51.10
2018-06-17T18:15:58.884Z,49.50
2018-06-17T18:18:27.924Z,49.10
2018-06-17T18:20:58.634Z,46.90
2018-06-17T18:23:30.499Z,45.50
2018-06-17T18:26:06.345Z,44.80
2018-06-17T18:28:40.305Z,46.80
2018-06-17T18:31:09.193Z,44.70
2018-06-17T18:33:42.962Z,45.20
2018-06-17T18:36:13.406Z,46.10
2018-06-17T18:38:43.735Z,45.20
2018-06-17T18:41:13.415Z,43.90
2018-06-17T18:43:42.724Z,44.70
2018-06-17T18:46:12.653Z,44.30
2018-06-17T18:48:41.423Z,44.20
2018-06-17T18:51:15.982Z,45.50
2018-06-17T18:53:44.848Z,45.60
2018-06-17T18:56:13.736Z,44.40
2018-06-17T18:58:42.523Z,43.80
2018-06-17T19:01:11.196Z,43.80
2018-06-17T19:03:39.914Z,42.20
2018-06-17T19:06:08.605Z,41.30
2018-06-17T19:08:42.903Z,42.60
2018-06-17T19:11:16.773Z,43.60
2018-06-17T19:13:50.832Z,43.20
2018-06-17T19:17:26.629Z,42.70
2018-06-17T19:19:55.381Z,45.30
2018-06-17T19:22:24.054Z,46.80
2018-06-17T19:24:53.317Z,45.70
2018-06-17T19:27:22.160Z,44.70
2018-06-17T19:29:51.034Z,46.90
2018-06-17T19:32:21.177Z,45.60
2018-06-17T19:34:51.617Z,48.30
2018-06-17T19:37:21.189Z,48.90
2018-06-17T19:39:50.000Z,48.40
2018-06-17T19:42:25.286Z,49.90
2018-06-17T19:44:54.127Z,49.90
2018-06-17T19:47:23.009Z,49.40
2018-06-17T19:49:57.068Z,51.00
2018-06-17T19:52:30.904Z,51.10
2018-06-17T19:55:07.487Z,51.30
2018-06-17T19:57:41.427Z,53.70
2018-06-17T20:00:15.561Z,54.10
2018-06-17T20:02:44.388Z,54.40
2018-06-17T20:05:13.025Z,54.80
2018-06-17T20:07:41.917Z,55.60
2018-06-17T20:10:10.970Z,56.20
2018-06-17T20:12:41.704Z,57.40
2018-06-17T20:15:10.864Z,56.50
2018-06-17T20:17:39.487Z,56.90
2018-06-17T20:20:08.262Z,58.30
2018-06-17T20:22:37.823Z,59.00
2018-06-17T20:25:06.490Z,60.50
2018-06-17T20:27:35.191Z,61.20
2018-06-17T20:30:03.879Z,62.10
2018-06-17T20:32:37.848Z,62.50
2018-06-17T20:35:11.789Z,63.60
2018-06-17T20:37:45.714Z,64.50
2018-06-17T20:40:20.150Z,64.10
2018-06-17T20:42:54.253Z,65.50
2018-06-17T20:45:22.870Z,65.30
2018-06-17T20:47:51.544Z,65.50
2018-06-17T20:50:20.207Z,66.10
2018-06-17T20:52:49.070Z,67.80
2018-06-17T20:55:18.350Z,67.80
2018-06-17T20:57:47.176Z,68.40
2018-06-17T21:00:15.817Z,69.10
2018-06-17T21:02:44.996Z,69.90
2018-06-17T21:05:13.833Z,69.10
2018-06-17T21:07:42.694Z,69.40
2018-06-17T21:10:11.827Z,69.00
2018-06-17T21:12:40.420Z,70.20
2018-06-17T21:15:14.442Z,71.10
2018-06-17T21:17:43.248Z,71.30
2018-06-17T21:20:17.191Z,71.90
2018-06-17T21:22:51.070Z,72.30
2018-06-17T21:25:24.975Z,72.80
2018-06-17T21:27:56.635Z,73.50
2018-06-17T21:30:25.342Z,73.50
2018-06-17T21:32:53.971Z,72.90
2018-06-17T21:35:22.583Z,73.10
2018-06-17T21:37:51.231Z,73.50
2018-06-17T21:40:19.870Z,72.60
2018-06-17T21:42:48.490Z,73.10
2018-06-17T21:45:17.120Z,73.00
2018-06-17T21:47:47.034Z,72.30
2018-06-17T21:50:15.635Z,72.40
2018-06-17T21:52:44.254Z,72.40
2018-06-17T21:55:12.873Z,72.30
2018-06-17T21:57:41.515Z,72.10
2018-06-17T22:00:10.651Z,72.50
2018-06-17T22:02:42.850Z,73.20
2018-06-17T22:05:11.561Z,72.10
2018-06-17T22:07:45.450Z,71.90
2018-06-17T22:10:19.320Z,73.20
2018-06-17T22:12:53.299Z,72.10
2018-06-17T22:16:25.981Z,72.00
2018-06-17T22:21:22.814Z,68.20
2018-06-17T22:23:51.437Z,65.50
2018-06-17T22:26:20.051Z,64.00
2018-06-17T22:28:48.699Z,63.90
2018-06-17T22:31:17.294Z,62.10
2018-06-17T22:33:45.897Z,61.60
2018-06-17T22:36:14.511Z,63.70
2018-06-17T22:38:43.106Z,64.30
2018-06-17T22:41:11.779Z,65.70
2018-06-17T22:43:40.367Z,65.80
2018-06-17T22:46:09.173Z,66.10
2018-06-17T22:48:37.809Z,66.80
2018-06-17T22:51:06.490Z,67.60
2018-06-17T22:53:46.382Z,69.20
2018-06-17T22:56:20.268Z,66.40
2018-06-17T22:58:54.192Z,66.40
2018-06-17T23:01:28.220Z,65.00
2018-06-17T23:04:02.191Z,67.00
2018-06-17T23:06:36.158Z,64.40
2018-06-17T23:09:12.596Z,65.70
2018-06-17T23:11:41.337Z,64.80
2018-06-17T23:14:09.941Z,64.80
2018-06-17T23:16:38.598Z,65.00
2018-06-17T23:19:07.191Z,64.70
2018-06-17T23:24:04.025Z,64.30
2018-06-17T23:26:32.613Z,65.80
2018-06-17T23:29:01.219Z,65.60
2018-06-17T23:31:29.813Z,66.90
2018-06-17T23:33:58.443Z,65.90
2018-06-17T23:36:27.039Z,65.90
2018-06-17T23:38:55.634Z,66.10
2018-06-17T23:41:24.259Z,67.00
2018-06-17T23:43:52.860Z,66.90
2018-06-17T23:46:26.651Z,65.80
2018-06-17T23:49:00.638Z,67.00
2018-06-17T23:51:34.626Z,66.50
2018-06-17T23:54:08.568Z,66.60
2018-06-17T23:56:37.243Z,66.70
2018-06-17T23:59:05.829Z,66.90
